Saint Joe, Illinois
Current Conditions -  °F | °C
As of 4:53 PM on Tuesday 25 Nov 2014 (Local Time) from KCPS Reporting Station
Clear Clear  
Wind Chill: 35°   Ceiling: Unl
Heat Index: 35°   Visibility: 10mi
Dew Point: 26°   Wind: 3mph
Humidity: 70%   Direction: 330°NNW
Pressure: 30.17"   Gusts: NA
Location:  38.3034°N, 90.1358°W
Report Text: KCPS 252253Z 33003KT 10SM CLR 02/M03 A3017 RMK AO2 SLP219 T00171033
Loading
Personal Weather Stations






























Interactive Weather Map New forecast layout! Learn more

10-Day Weather Forecast

Advertisements
Track Severe Weather on mobile